Taraska — E5U2755 — position and weather

sailwx.info

Track history (hours):
 
Tides and Currents Weather Stations Pressure Air Temp Water Temp Dewpoint Dewpoint Depression Visibility Wind Speed Wind Dir Waves Ship Positions

Taraska

Last reported at 2017-Oct-09 09:14 UTC. Time now 2017-Nov-22 02:01 UTC.
Position S 29°58' E 031°50'.
Warning: this ship's position is 43 days out of date.

Length 37 m; draft 2.5 m.

Type: Ship. MMSI: 518808000.

Date/timePositionNaut miles runAvg speedWind from/ knotsBaromVisibWave heightAir tempDewpointWater temp
2017-Oct-09 09:14S 29°58' E 031°50'3 5.7
2017-Oct-09 08:42S 30°00' E 031°48'2 5.4
2017-Oct-09 08:15S 30°01' E 031°45'2 5.7
2017-Oct-09 07:56S 30°03' E 031°44'3 5.9
2017-Oct-09 07:30S 30°04' E 031°41'3 6.1
2017-Oct-09 07:00S 30°06' E 031°39'3 5.6
2017-Oct-09 06:30S 30°08' E 031°37'3 5.4
2017-Oct-09 06:00S 30°10' E 031°35'3 5.7
2017-Oct-09 05:29S 30°13' E 031°33'9 5.9
2017-Oct-09 03:58S 30°20' E 031°27'  
Track history (hours):
 
Tides and Currents Weather Stations Pressure Air Temp Water Temp Dewpoint Dewpoint Depression Visibility Wind Speed Wind Dir Waves Ship Positions

Taraska

Last reported at 2017-Oct-09 09:14 UTC. Time now 2017-Nov-22 02:01 UTC.
Position S 29°58' E 031°50'.
Warning: this ship's position is 43 days out of date.

Length 37 m; draft 2.5 m.

Type: Ship. MMSI: 518808000.

Date/timePositionNaut miles runAvg speedWind from/ knotsBaromVisibWave heightAir tempDewpointWater temp
2017-Oct-09 09:14S 29°58' E 031°50'3 5.7
2017-Oct-09 08:42S 30°00' E 031°48'2 5.4
2017-Oct-09 08:15S 30°01' E 031°45'2 5.7
2017-Oct-09 07:56S 30°03' E 031°44'3 5.9
2017-Oct-09 07:30S 30°04' E 031°41'3 6.1
2017-Oct-09 07:00S 30°06' E 031°39'3 5.6
2017-Oct-09 06:30S 30°08' E 031°37'3 5.4
2017-Oct-09 06:00S 30°10' E 031°35'3 5.7
2017-Oct-09 05:29S 30°13' E 031°33'9 5.9
2017-Oct-09 03:58S 30°20' E 031°27'  

Dump ship's entire track history